Time;durP1;ratioP1;P1;durP2;ratioP2;P2;SDS_P1;SDS_P2;PMS_P1;PMS_P2;Temp;Humidity;BMP_temperature;BMP_pressure;BME280_temperature;BME280_humidity;BME280_pressure;Samples;Min_cycle;Max_cycle;Signal;HPM_P1;HPM_P2
2022/10/31 00:01:23;;;;;;;14.38;5.97;;;16.90;99.90;;;;;;5050307;28;20348;-71
2022/10/31 00:03:49;;;;;;;13.13;5.57;;;17.00;99.90;;;;;;5050249;28;20128;-71
2022/10/31 00:06:17;;;;;;;14.10;6.07;;;17.00;99.90;;;;;;5050228;28;20096;-70
2022/10/31 00:08:44;;;;;;;19.58;6.25;;;17.00;99.90;;;;;;5049590;28;20108;-71
2022/10/31 00:11:10;;;;;;;14.43;5.60;;;17.00;99.90;;;;;;5050231;28;20428;-71
2022/10/31 00:13:36;;;;;;;15.82;6.82;;;17.00;99.90;;;;;;5049492;28;20103;-71
2022/10/31 00:16:02;;;;;;;13.57;4.72;;;17.00;99.90;;;;;;5050129;28;20040;-71
2022/10/31 00:18:27;;;;;;;13.10;5.20;;;16.90;99.90;;;;;;5050193;28;20036;-72
2022/10/31 00:21:03;;;;;;;16.17;5.97;;;16.90;99.90;;;;;;5050060;28;20056;-71
2022/10/31 00:23:29;;;;;;;11.63;5.65;;;16.90;99.90;;;;;;5050558;28;20102;-71
2022/10/31 00:26:03;;;;;;;16.52;5.70;;;16.90;99.90;;;;;;5050068;28;20087;-71
2022/10/31 00:28:30;;;;;;;18.17;5.90;;;16.90;99.90;;;;;;5049050;28;20424;-70
2022/10/31 00:31:02;;;;;;;14.63;5.75;;;16.90;99.90;;;;;;5050015;28;20475;-71
2022/10/31 00:33:28;;;;;;;19.88;6.80;;;16.90;99.90;;;;;;5049886;28;20119;-71
2022/10/31 00:35:54;;;;;;;18.25;6.65;;;16.90;99.90;;;;;;5049772;28;20116;-70
2022/10/31 00:38:20;;;;;;;19.17;6.68;;;16.90;99.90;;;;;;5050454;28;20406;-70
2022/10/31 00:40:46;;;;;;;20.02;7.53;;;17.00;99.80;;;;;;5050029;28;20102;-71
2022/10/31 00:43:11;;;;;;;19.58;7.47;;;17.00;99.80;;;;;;5049901;28;20115;-71
2022/10/31 00:45:37;;;;;;;25.38;7.78;;;17.00;99.90;;;;;;5050009;28;20459;-71
2022/10/31 00:48:03;;;;;;;16.40;6.90;;;17.00;99.80;;;;;;5049806;28;20056;-70
2022/10/31 00:50:29;;;;;;;19.58;7.90;;;17.00;99.90;;;;;;5050157;28;20021;-71
2022/10/31 00:52:54;;;;;;;22.30;7.88;;;17.00;99.90;;;;;;5048744;28;20053;-71
2022/10/31 00:55:20;;;;;;;15.98;7.00;;;17.00;99.90;;;;;;5049640;28;20030;-71
2022/10/31 00:57:47;;;;;;;12.98;6.93;;;17.00;99.90;;;;;;5048888;28;20033;-71
2022/10/31 01:00:13;;;;;;;17.88;7.60;;;17.00;99.90;;;;;;5048547;28;20067;-71
2022/10/31 01:02:39;;;;;;;16.10;6.85;;;17.00;99.90;;;;;;5050191;28;20502;-71
2022/10/31 01:05:05;;;;;;;21.77;7.72;;;17.00;99.90;;;;;;5049489;28;20040;-69
2022/10/31 01:07:30;;;;;;;17.30;7.20;;;17.00;99.90;;;;;;5049596;28;20124;-70
2022/10/31 01:09:56;;;;;;;18.00;6.95;;;17.00;99.90;;;;;;5049583;28;20048;-69
2022/10/31 01:12:22;;;;;;;25.17;9.10;;;16.90;99.90;;;;;;5049509;28;20037;-70
2022/10/31 01:14:47;;;;;;;19.30;9.07;;;16.90;99.90;;;;;;5049426;28;20045;-71
2022/10/31 01:17:14;;;;;;;26.92;9.95;;;16.90;99.90;;;;;;5050062;28;20021;-71
2022/10/31 01:19:39;;;;;;;24.17;8.85;;;17.00;99.90;;;;;;5049553;28;20136;-71
2022/10/31 01:22:05;;;;;;;32.13;11.90;;;16.90;99.90;;;;;;5049504;28;20116;-71
2022/10/31 01:24:31;;;;;;;25.73;12.88;;;16.80;99.90;;;;;;5048864;28;20421;-71
2022/10/31 01:26:57;;;;;;;35.22;12.48;;;16.80;99.90;;;;;;5052165;28;20036;-70
2022/10/31 01:29:23;;;;;;;33.92;13.68;;;16.80;99.90;;;;;;5053501;28;20025;-71
2022/10/31 01:31:48;;;;;;;33.85;13.93;;;16.80;99.90;;;;;;5053219;28;20048;-70
2022/10/31 01:34:16;;;;;;;31.80;14.43;;;16.80;99.90;;;;;;5053000;28;20043;-71
2022/10/31 01:36:50;;;;;;;;;;;16.80;99.90;;;;;;5053495;28;20036;-71
2022/10/31 01:39:17;;;;;;;29.35;14.80;;;16.80;99.90;;;;;;5052908;28;20020;-71
2022/10/31 01:41:46;;;;;;;36.05;16.08;;;16.70;99.90;;;;;;5053274;28;20058;-71
2022/10/31 01:44:17;;;;;;;33.88;16.33;;;16.70;99.90;;;;;;5052919;28;20075;-70
2022/10/31 01:46:55;;;;;;;38.05;15.82;;;16.80;99.90;;;;;;5052865;28;20131;-71
2022/10/31 01:49:29;;;;;;;37.53;16.70;;;16.80;99.90;;;;;;5052881;28;20029;-71
2022/10/31 01:52:01;;;;;;;37.33;16.30;;;16.80;99.90;;;;;;5052393;28;20365;-71
2022/10/31 01:54:31;;;;;;;40.28;17.95;;;16.80;99.90;;;;;;5052585;28;20040;-70
2022/10/31 01:56:58;;;;;;;33.20;16.98;;;16.80;99.90;;;;;;5052808;28;20028;-71
2022/10/31 01:59:28;;;;;;;37.67;17.35;;;16.90;99.90;;;;;;5053309;28;20077;-70
2022/10/31 02:01:54;;;;;;;39.92;17.70;;;16.80;99.90;;;;;;5052425;28;20029;-70
2022/10/31 02:04:22;;;;;;;47.95;19.05;;;16.80;99.90;;;;;;5052343;28;20375;-71
2022/10/31 02:07:18;;;;;;;42.15;18.50;;;16.80;99.90;;;;;;5052377;28;20036;-71
2022/10/31 02:09:46;;;;;;;38.88;18.75;;;16.80;99.90;;;;;;5052427;28;20135;-71
2022/10/31 02:12:11;;;;;;;;;;;16.80;99.90;;;;;;5052719;28;20036;-70
2022/10/31 02:14:38;;;;;;;42.83;18.65;;;16.90;99.90;;;;;;5052575;28;19932;-70
2022/10/31 02:17:04;;;;;;;39.55;19.10;;;16.80;99.90;;;;;;5052212;28;20041;-71
2022/10/31 02:19:49;;;;;;;46.38;20.00;;;16.90;99.90;;;;;;5052141;28;20033;-70
2022/10/31 02:22:32;;;;;;;44.22;18.70;;;16.80;99.90;;;;;;5050849;28;20037;-71
2022/10/31 02:25:03;;;;;;;39.55;19.55;;;16.90;99.90;;;;;;5050936;28;20116;-71
2022/10/31 02:27:54;;;;;;;38.67;19.90;;;16.80;99.90;;;;;;5050943;28;20366;-70
2022/10/31 02:30:28;;;;;;;48.80;19.13;;;16.90;99.90;;;;;;5051944;28;20128;-71
2022/10/31 02:33:10;;;;;;;40.15;18.80;;;16.90;99.90;;;;;;5050641;28;20442;-71
2022/10/31 02:35:57;;;;;;;47.08;19.90;;;16.90;99.90;;;;;;5058746;28;20036;-71
2022/10/31 02:38:36;;;;;;;40.50;19.03;;;16.90;99.90;;;;;;5072237;28;20055;-71
2022/10/31 02:41:26;;;;;;;39.08;19.00;;;16.90;99.90;;;;;;5071641;28;20462;-70
2022/10/31 02:44:00;;;;;;;44.85;18.27;;;16.90;99.90;;;;;;5071609;28;20526;-70
2022/10/31 02:46:43;;;;;;;49.63;19.95;;;16.80;99.90;;;;;;5071782;28;20040;-70
2022/10/31 02:49:29;;;;;;;43.15;19.58;;;16.90;99.90;;;;;;5070405;28;20079;-70
2022/10/31 02:51:55;;;;;;;42.17;19.02;;;16.80;99.90;;;;;;5071639;28;20024;-70
2022/10/31 02:54:26;;;;;;;42.25;18.75;;;16.80;99.90;;;;;;5071158;28;20032;-70
2022/10/31 02:56:58;;;;;;;37.85;18.10;;;16.90;99.90;;;;;;5071261;28;20032;-71
2022/10/31 02:59:24;;;;;;;37.95;19.23;;;16.90;99.90;;;;;;5072142;28;20086;-71
2022/10/31 03:02:09;;;;;;;38.42;18.20;;;16.80;99.90;;;;;;5071273;28;20033;-71
2022/10/31 03:05:06;;;;;;;46.50;18.40;;;16.80;99.90;;;;;;5071120;28;20596;-71
2022/10/31 03:08:09;;;;;;;41.80;18.63;;;16.80;99.90;;;;;;5071354;28;20124;-70
2022/10/31 03:10:44;;;;;;;39.53;17.95;;;16.80;99.90;;;;;;5071276;28;20173;-70
2022/10/31 03:13:19;;;;;;;40.30;19.73;;;16.80;99.90;;;;;;5071098;28;20052;-71
2022/10/31 03:15:49;;;;;;;40.20;18.85;;;16.80;99.90;;;;;;5071181;28;20028;-70
2022/10/31 03:18:32;;;;;;;43.42;18.40;;;16.80;99.90;;;;;;5071007;28;20028;-71
2022/10/31 03:21:18;;;;;;;40.78;19.13;;;16.80;99.90;;;;;;5070844;28;20446;-70
2022/10/31 03:23:46;;;;;;;40.45;17.90;;;16.80;99.90;;;;;;5070263;28;20027;-71
2022/10/31 03:26:13;;;;;;;38.03;17.23;;;16.70;99.90;;;;;;5070934;28;20032;-71
2022/10/31 03:28:56;;;;;;;43.90;18.00;;;16.70;99.90;;;;;;5071262;28;20093;-71
2022/10/31 03:31:27;;;;;;;41.40;17.65;;;16.60;99.90;;;;;;5070932;28;20041;-71
2022/10/31 03:33:56;;;;;;;41.65;16.70;;;16.60;99.90;;;;;;5070751;28;20040;-71
2022/10/31 03:36:22;;;;;;;41.13;17.55;;;16.50;99.90;;;;;;5069876;28;20527;-71
2022/10/31 03:38:48;;;;;;;41.85;17.52;;;16.60;99.90;;;;;;5069627;28;20072;-71
2022/10/31 03:41:23;;;;;;;40.67;16.45;;;16.50;99.90;;;;;;5071059;28;20351;-71
2022/10/31 03:44:00;;;;;;;35.70;17.27;;;16.40;99.90;;;;;;5070880;28;20029;-71
2022/10/31 03:46:27;;;;;;;34.90;17.63;;;16.40;99.90;;;;;;5070921;28;20094;-70
2022/10/31 03:48:52;;;;;;;42.13;19.48;;;16.30;99.90;;;;;;5070138;28;20411;-71
2022/10/31 03:51:18;;;;;;;34.60;17.02;;;16.30;99.90;;;;;;5070520;28;20086;-70
2022/10/31 03:53:56;;;;;;;46.47;18.38;;;16.30;99.90;;;;;;5070801;28;20319;-71
2022/10/31 03:56:27;;;;;;;;;;;16.30;99.90;;;;;;5070005;28;20037;-71
2022/10/31 03:59:18;;;;;;;35.28;16.85;;;16.30;99.90;;;;;;5070417;28;20318;-71
2022/10/31 04:01:49;;;;;;;37.28;17.00;;;16.20;99.90;;;;;;5070435;28;20351;-70
2022/10/31 04:04:15;;;;;;;44.10;18.60;;;16.20;99.90;;;;;;5070123;28;20083;-71
2022/10/31 04:06:43;;;;;;;41.60;18.60;;;16.20;99.90;;;;;;5069403;28;20446;-72
2022/10/31 04:09:09;;;;;;;41.03;18.30;;;16.20;99.90;;;;;;5069059;28;20028;-70
2022/10/31 04:11:40;;;;;;;39.95;18.25;;;16.20;99.90;;;;;;5069910;28;20012;-71
2022/10/31 04:14:08;;;;;;;43.47;19.27;;;16.20;99.90;;;;;;5070275;28;20045;-71
2022/10/31 04:16:33;;;;;;;38.67;19.02;;;16.20;99.90;;;;;;5070447;28;20028;-71
2022/10/31 04:18:59;;;;;;;43.55;19.23;;;16.20;99.90;;;;;;5070447;28;20029;-71
2022/10/31 04:21:29;;;;;;;48.03;20.00;;;16.20;99.90;;;;;;5069152;28;20025;-72
2022/10/31 04:23:56;;;;;;;36.35;17.75;;;16.10;99.90;;;;;;5070092;28;20025;-72
2022/10/31 04:26:22;;;;;;;34.88;17.52;;;16.10;99.90;;;;;;5069324;28;20028;-71
2022/10/31 04:28:48;;;;;;;38.70;18.13;;;16.10;99.90;;;;;;5068940;28;20453;-71
2022/10/31 04:31:14;;;;;;;43.58;18.13;;;16.10;99.90;;;;;;5069899;28;20044;-72
2022/10/31 04:33:40;;;;;;;37.88;18.88;;;16.00;99.90;;;;;;5070019;28;20052;-71
2022/10/31 04:36:06;;;;;;;43.97;18.38;;;15.90;99.90;;;;;;5068818;28;20029;-72
2022/10/31 04:38:31;;;;;;;38.17;17.90;;;15.90;99.90;;;;;;5070329;28;20134;-72
2022/10/31 04:40:57;;;;;;;40.33;18.55;;;15.90;99.90;;;;;;5069996;28;20115;-71
2022/10/31 04:43:23;;;;;;;41.40;18.48;;;15.90;99.90;;;;;;5069789;28;20052;-71
2022/10/31 04:45:48;;;;;;;34.60;17.90;;;15.80;99.90;;;;;;5069969;28;20044;-72
2022/10/31 04:48:14;;;;;;;32.13;16.92;;;15.80;99.90;;;;;;5069803;28;20449;-71
2022/10/31 04:50:40;;;;;;;34.03;17.90;;;15.80;99.90;;;;;;5070331;28;20422;-72
2022/10/31 04:53:06;;;;;;;33.85;17.95;;;15.70;99.90;;;;;;5069775;28;20033;-72
2022/10/31 04:55:31;;;;;;;38.83;17.23;;;15.60;99.90;;;;;;5069851;28;20044;-72
2022/10/31 04:57:57;;;;;;;39.25;18.02;;;15.50;99.90;;;;;;5068831;28;20039;-72
2022/10/31 05:00:23;;;;;;;44.53;18.75;;;15.50;99.90;;;;;;5071373;28;20433;-70
2022/10/31 05:02:55;;;;;;;36.40;17.80;;;15.40;99.90;;;;;;5073525;28;20025;-72
2022/10/31 05:05:29;;;;;;;34.10;18.25;;;15.40;99.90;;;;;;5074131;28;20044;-72
2022/10/31 05:07:55;;;;;;;38.20;17.85;;;15.40;99.90;;;;;;5073574;28;20389;-73
2022/10/31 05:10:23;;;;;;;41.20;18.50;;;15.40;99.90;;;;;;5073467;28;20475;-70
2022/10/31 05:12:54;;;;;;;40.97;19.30;;;15.40;99.90;;;;;;5073057;28;20028;-72
2022/10/31 05:15:22;;;;;;;37.28;18.17;;;15.40;99.90;;;;;;5073559;28;20028;-70
2022/10/31 05:17:49;;;;;;;47.13;19.85;;;15.30;99.90;;;;;;5073434;28;20021;-69
2022/10/31 05:20:18;;;;;;;42.43;18.47;;;15.30;99.90;;;;;;5073898;28;20029;-69
2022/10/31 05:22:54;;;;;;;42.95;19.35;;;15.20;99.90;;;;;;5073258;28;20070;-72
2022/10/31 05:25:22;;;;;;;87.78;44.75;;;15.30;99.90;;;;;;5073485;28;20032;-71
2022/10/31 05:27:50;;;;;;;48.97;24.50;;;15.20;99.90;;;;;;5073357;28;20086;-69
2022/10/31 05:30:19;;;;;;;39.17;18.67;;;15.20;99.90;;;;;;5073065;28;20075;-71
2022/10/31 05:32:47;;;;;;;40.65;18.08;;;15.20;99.90;;;;;;5073676;28;20045;-71
2022/10/31 05:35:27;;;;;;;39.90;20.58;;;15.10;99.90;;;;;;5073089;28;20044;-70
2022/10/31 05:37:53;;;;;;;38.95;18.02;;;15.00;99.90;;;;;;5071717;28;20502;-70
2022/10/31 05:40:20;;;;;;;42.40;19.45;;;15.00;99.90;;;;;;5071776;28;20036;-70
2022/10/31 05:42:46;;;;;;;38.35;18.25;;;15.00;99.90;;;;;;5072833;28;20044;-70
2022/10/31 05:45:15;;;;;;;36.47;17.92;;;15.00;99.90;;;;;;5072800;28;20037;-70
2022/10/31 05:47:41;;;;;;;43.55;18.90;;;15.00;99.90;;;;;;5073151;28;20016;-70
2022/10/31 05:50:09;;;;;;;36.97;19.13;;;14.90;99.90;;;;;;5072565;28;20033;-71
2022/10/31 05:52:35;;;;;;;35.20;18.05;;;14.90;99.90;;;;;;5072705;28;20140;-70
2022/10/31 05:55:01;;;;;;;48.22;20.23;;;14.90;99.90;;;;;;5072764;28;20086;-70
2022/10/31 05:57:27;;;;;;;38.85;19.33;;;14.90;99.90;;;;;;5072481;28;20025;-69
2022/10/31 05:59:53;;;;;;;45.30;19.88;;;14.80;99.90;;;;;;5071622;28;20307;-70
2022/10/31 06:02:22;;;;;;;38.45;19.02;;;14.90;99.90;;;;;;5073080;28;20121;-70
2022/10/31 06:04:47;;;;;;;39.25;19.08;;;14.80;99.90;;;;;;5072678;28;20086;-69
2022/10/31 06:07:13;;;;;;;40.10;18.42;;;14.80;99.90;;;;;;5072376;28;20389;-71
2022/10/31 06:09:39;;;;;;;37.55;17.98;;;14.80;99.90;;;;;;5072491;28;20056;-70
2022/10/31 06:12:04;;;;;;;35.55;17.50;;;14.80;99.90;;;;;;5071077;28;20052;-70
2022/10/31 06:14:30;;;;;;;45.22;18.10;;;14.80;99.90;;;;;;5071504;28;20052;-70
2022/10/31 06:16:56;;;;;;;41.63;17.50;;;14.70;99.90;;;;;;5071309;28;20446;-71
2022/10/31 06:19:22;;;;;;;37.17;17.48;;;14.80;99.90;;;;;;5071224;28;20029;-71
2022/10/31 06:21:47;;;;;;;33.92;17.13;;;14.80;99.90;;;;;;5072249;28;20116;-71
2022/10/31 06:24:14;;;;;;;42.25;18.95;;;14.70;99.90;;;;;;5072233;28;20028;-70
2022/10/31 06:26:40;;;;;;;36.53;18.08;;;14.70;99.90;;;;;;5072874;28;20462;-71
2022/10/31 06:29:06;;;;;;;38.63;17.48;;;14.70;99.90;;;;;;5072586;28;20029;-70
2022/10/31 06:31:32;;;;;;;39.13;18.35;;;14.70;99.90;;;;;;5072240;28;20097;-70
2022/10/31 06:33:57;;;;;;;37.90;17.27;;;14.70;99.90;;;;;;5071942;28;20047;-72
2022/10/31 06:36:23;;;;;;;35.72;17.30;;;14.60;99.90;;;;;;5072126;28;20043;-71
2022/10/31 06:38:49;;;;;;;37.17;18.80;;;14.60;99.90;;;;;;5071729;28;20056;-70
2022/10/31 06:41:14;;;;;;;35.80;17.67;;;14.60;99.90;;;;;;5071113;28;20021;-70
2022/10/31 06:43:40;;;;;;;37.28;17.83;;;14.60;99.90;;;;;;5071745;28;20337;-70
2022/10/31 06:46:06;;;;;;;30.30;16.63;;;14.60;99.90;;;;;;5071558;28;20036;-71
2022/10/31 06:48:32;;;;;;;37.92;17.80;;;14.60;99.90;;;;;;5071775;28;20111;-70
2022/10/31 06:51:01;;;;;;;36.63;17.42;;;14.70;99.90;;;;;;5071417;28;20470;-70
2022/10/31 06:53:29;;;;;;;36.83;17.33;;;14.60;99.90;;;;;;5071789;28;20093;-71
2022/10/31 06:55:58;;;;;;;42.70;18.17;;;14.60;99.90;;;;;;5071372;28;20021;-70
2022/10/31 06:58:24;;;;;;;35.42;16.27;;;14.60;99.90;;;;;;5071340;28;20160;-71
2022/10/31 07:00:50;;;;;;;38.15;18.35;;;14.60;99.90;;;;;;5071496;28;20108;-70
2022/10/31 07:03:15;;;;;;;34.30;16.23;;;14.60;99.90;;;;;;5071717;28;20052;-70
2022/10/31 07:05:42;;;;;;;37.35;16.70;;;14.60;99.90;;;;;;5072220;28;20367;-71
2022/10/31 07:08:11;;;;;;;40.10;16.98;;;14.60;99.90;;;;;;5071432;28;20024;-70
2022/10/31 07:10:38;;;;;;;33.05;16.38;;;14.50;99.90;;;;;;5070866;28;20033;-68
2022/10/31 07:13:05;;;;;;;34.08;16.67;;;14.50;99.90;;;;;;5070536;28;20144;-70
2022/10/31 07:15:36;;;;;;;44.60;17.70;;;14.50;99.90;;;;;;5070949;28;20134;-72
2022/10/31 07:18:04;;;;;;;34.70;16.45;;;14.60;99.90;;;;;;5070908;28;20154;-71
2022/10/31 07:20:30;;;;;;;39.58;16.60;;;14.60;99.90;;;;;;5071517;28;20021;-72
2022/10/31 07:22:57;;;;;;;35.15;17.35;;;14.60;99.90;;;;;;5070049;28;20392;-71
2022/10/31 07:25:24;;;;;;;31.55;17.30;;;14.60;99.90;;;;;;5070879;28;20040;-72
2022/10/31 07:27:49;;;;;;;35.50;16.20;;;14.60;99.90;;;;;;5070720;28;20043;-70
2022/10/31 07:30:18;;;;;;;37.10;16.98;;;14.60;99.90;;;;;;5069590;28;20412;-71
2022/10/31 07:32:45;;;;;;;;;;;14.70;99.90;;;;;;5071517;28;20024;-73
2022/10/31 07:35:13;;;;;;;48.23;17.10;;;14.70;99.90;;;;;;5070657;28;19948;-71
2022/10/31 07:37:38;;;;;;;;;;;14.80;99.90;;;;;;5071200;28;20032;-73
2022/10/31 07:40:06;;;;;;;31.98;15.55;;;14.80;99.90;;;;;;5070668;28;19908;-72
2022/10/31 07:42:40;;;;;;;33.17;15.68;;;14.90;99.90;;;;;;5069422;28;20025;-72
2022/10/31 07:45:07;;;;;;;39.03;17.20;;;14.90;99.90;;;;;;5070949;28;20070;-71
2022/10/31 07:47:43;;;;;;;29.55;15.95;;;14.90;99.90;;;;;;5071226;28;20020;-72
2022/10/31 07:50:10;;;;;;;37.28;17.83;;;14.90;99.90;;;;;;5070598;28;20028;-71
2022/10/31 07:52:36;;;;;;;30.13;15.27;;;15.00;99.90;;;;;;5070618;28;20470;-70
2022/10/31 07:55:04;;;;;;;35.92;16.08;;;15.10;99.90;;;;;;5070891;28;20450;-73
2022/10/31 07:57:29;;;;;;;31.13;15.75;;;15.10;99.90;;;;;;5069758;28;20029;-73
2022/10/31 07:59:55;;;;;;;36.92;16.35;;;15.20;99.90;;;;;;5069406;28;20119;-71
2022/10/31 08:02:20;;;;;;;30.50;15.65;;;15.30;99.90;;;;;;5069765;28;20020;-72
2022/10/31 08:04:46;;;;;;;31.98;16.38;;;15.30;99.90;;;;;;5070602;28;20059;-73
2022/10/31 08:07:12;;;;;;;40.35;16.70;;;15.30;99.90;;;;;;5070533;28;20048;-72
2022/10/31 08:09:37;;;;;;;36.00;16.40;;;15.40;99.90;;;;;;5070428;28;20036;-72
2022/10/31 08:12:04;;;;;;;33.72;16.60;;;15.50;99.90;;;;;;5070360;28;20021;-71
2022/10/31 08:14:29;;;;;;;28.67;15.32;;;15.50;99.90;;;;;;5069597;28;20040;-72
2022/10/31 08:16:55;;;;;;;34.35;15.45;;;15.60;99.90;;;;;;5070315;28;20029;-71
2022/10/31 08:19:21;;;;;;;28.88;15.23;;;15.80;99.90;;;;;;5070325;28;20155;-72
2022/10/31 08:21:49;;;;;;;30.35;15.40;;;16.20;99.90;;;;;;5069103;28;20059;-73
2022/10/31 08:24:15;;;;;;;31.17;15.15;;;16.40;99.90;;;;;;5070050;28;20048;-72
2022/10/31 08:26:41;;;;;;;32.90;15.82;;;16.40;99.90;;;;;;5069542;28;20368;-74
2022/10/31 08:29:07;;;;;;;28.67;14.70;;;16.50;99.90;;;;;;5070061;28;20028;-72
2022/10/31 08:31:32;;;;;;;34.40;14.90;;;16.60;99.90;;;;;;5068809;28;20423;-73
2022/10/31 08:33:58;;;;;;;34.63;15.65;;;16.70;99.90;;;;;;5071145;28;20037;-72
2022/10/31 08:36:24;;;;;;;33.83;15.55;;;16.80;99.90;;;;;;5074398;28;20363;-72
2022/10/31 08:38:49;;;;;;;37.47;15.57;;;16.80;99.90;;;;;;5073926;28;20028;-72
2022/10/31 08:41:15;;;;;;;30.80;15.05;;;16.80;99.90;;;;;;5073679;28;20082;-75
2022/10/31 08:43:41;;;;;;;33.90;15.10;;;16.90;99.90;;;;;;5074305;28;20035;-74
2022/10/31 08:46:06;;;;;;;34.13;14.90;;;16.80;99.90;;;;;;5073168;28;20064;-75
2022/10/31 08:48:32;;;;;;;38.67;19.25;;;16.90;99.90;;;;;;5074090;28;20025;-73
2022/10/31 08:50:59;;;;;;;41.72;18.63;;;16.90;99.90;;;;;;5074299;28;20021;-73
2022/10/31 08:53:25;;;;;;;35.47;15.82;;;16.90;99.90;;;;;;5074342;28;20478;-74
2022/10/31 08:55:55;;;;;;;32.13;15.15;;;17.00;99.90;;;;;;5073076;28;20104;-74
2022/10/31 08:58:21;;;;;;;31.83;13.93;;;17.00;99.90;;;;;;5072716;28;20048;-72
2022/10/31 09:00:48;;;;;;;33.75;14.75;;;17.00;99.90;;;;;;5073987;28;20450;-73
2022/10/31 09:03:20;;;;;;;38.25;14.40;;;17.10;99.90;;;;;;5073771;28;20020;-74
2022/10/31 09:05:46;;;;;;;31.33;14.90;;;17.20;99.90;;;;;;5074645;28;20086;-74
2022/10/31 09:08:12;;;;;;;33.45;14.75;;;17.20;99.90;;;;;;5073769;28;20186;-76
2022/10/31 09:10:40;;;;;;;37.42;16.42;;;17.30;99.90;;;;;;5074192;28;20079;-74
2022/10/31 09:13:17;;;;;;;39.37;16.87;;;17.40;99.90;;;;;;5072543;28;20044;-71
2022/10/31 09:15:45;;;;;;;32.88;16.20;;;17.40;99.90;;;;;;5073712;28;20294;-73
2022/10/31 09:18:11;;;;;;;36.15;16.58;;;17.50;99.90;;;;;;5073671;28;20533;-75
2022/10/31 09:20:38;;;;;;;39.00;16.27;;;17.50;99.90;;;;;;5074079;28;20029;-72
2022/10/31 09:23:10;;;;;;;37.40;18.05;;;17.60;99.90;;;;;;5073746;28;20028;-71
2022/10/31 09:25:36;;;;;;;34.00;16.38;;;17.70;99.90;;;;;;5073561;28;20029;-71
2022/10/31 09:28:04;;;;;;;40.05;17.33;;;17.80;99.90;;;;;;5073542;28;20052;-72
2022/10/31 09:30:32;;;;;;;31.48;16.25;;;17.90;99.90;;;;;;5073671;28;20033;-74
2022/10/31 09:33:01;;;;;;;41.17;16.67;;;18.00;99.90;;;;;;5073486;28;20021;-71
2022/10/31 09:35:27;;;;;;;32.20;15.40;;;18.10;99.90;;;;;;5074107;28;20437;-71
2022/10/31 09:37:56;;;;;;;34.47;16.05;;;18.10;99.90;;;;;;5073459;28;20294;-70
2022/10/31 09:40:39;;;;;;;36.00;15.07;;;18.30;99.90;;;;;;5073172;28;20405;-74
2022/10/31 09:43:14;;;;;;;30.25;15.18;;;18.30;99.90;;;;;;5073498;28;20043;-74
2022/10/31 09:45:52;;;;;;;33.40;16.05;;;18.50;99.90;;;;;;5072684;28;20063;-73
2022/10/31 09:48:33;;;;;;;28.40;13.70;;;18.60;99.90;;;;;;5073282;28;20035;-73
2022/10/31 09:51:05;;;;;;;35.90;15.20;;;18.70;99.90;;;;;;5073688;28;20142;-74
2022/10/31 09:53:56;;;;;;;31.20;13.40;;;18.80;99.90;;;;;;5073727;28;20178;-76
2022/10/31 09:56:25;;;;;;;34.28;13.00;;;18.80;99.90;;;;;;5073446;28;20429;-80
2022/10/31 09:58:55;;;;;;;34.28;12.65;;;18.80;99.90;;;;;;5072048;28;20048;-74
2022/10/31 10:01:29;;;;;;;30.50;13.95;;;18.70;99.90;;;;;;5072918;28;20048;-77
2022/10/31 10:04:04;;;;;;;27.55;13.27;;;18.60;99.90;;;;;;5071764;28;20025;-74
2022/10/31 10:06:35;;;;;;;30.27;13.75;;;18.50;99.90;;;;;;5072964;28;20025;-73
2022/10/31 10:09:01;;;;;;;39.08;12.52;;;18.50;99.90;;;;;;5072787;28;20111;-71
2022/10/31 10:11:36;;;;;;;25.73;12.52;;;18.50;99.90;;;;;;5073348;28;20043;-72
2022/10/31 10:14:19;;;;;;;33.70;16.27;;;18.50;99.90;;;;;;5072660;28;20060;-72
2022/10/31 10:17:07;;;;;;;35.70;14.75;;;18.40;99.90;;;;;;5072923;28;20111;-73
2022/10/31 10:19:49;;;;;;;26.15;10.93;;;18.50;99.90;;;;;;5072566;28;20432;-72
2022/10/31 10:23:02;;;;;;;28.42;11.95;;;18.50;99.90;;;;;;5072399;28;20036;-75
2022/10/31 10:25:39;;;;;;;31.48;11.93;;;18.60;99.90;;;;;;5067464;28;20466;-74
2022/10/31 10:28:19;;;;;;;26.75;9.88;;;18.70;99.90;;;;;;5072442;28;20032;-73
2022/10/31 10:31:20;;;;;;;32.97;12.32;;;18.80;99.90;;;;;;5072490;28;20417;-73
2022/10/31 10:33:55;;;;;;;27.45;11.40;;;18.90;99.80;;;;;;5059622;28;20050;-73
2022/10/31 10:36:34;;;;;;;29.05;11.27;;;19.00;99.90;;;;;;5072638;28;20043;-76
2022/10/31 10:39:07;;;;;;;27.33;11.50;;;19.00;99.90;;;;;;5071587;28;20063;-74
2022/10/31 10:41:33;;;;;;;28.02;11.00;;;19.20;99.90;;;;;;5073036;28;20024;-72
2022/10/31 10:43:59;;;;;;;25.90;10.93;;;19.20;99.90;;;;;;5073450;28;20420;-76
2022/10/31 10:49:43;;;;;;;27.98;10.07;;;19.30;99.40;;;;;;5077062;28;20043;-75
2022/10/31 10:52:43;;;;;;;27.33;10.55;;;19.20;99.60;;;;;;5072008;28;20054;-77
2022/10/31 10:55:19;;;;;;;20.65;10.13;;;19.20;99.50;;;;;;5071217;28;20037;-79
2022/10/31 10:58:04;;;;;;;28.35;12.35;;;19.20;99.50;;;;;;5072604;28;20102;-75
2022/10/31 11:00:39;;;;;;;23.73;11.25;;;19.40;99.40;;;;;;5071797;28;20358;-76
2022/10/31 11:03:05;;;;;;;28.50;10.73;;;19.40;99.30;;;;;;5071697;28;20028;-76
2022/10/31 11:05:38;;;;;;;22.73;10.05;;;19.50;99.20;;;;;;5072441;28;20032;-77
2022/10/31 11:08:05;;;;;;;24.23;11.25;;;19.50;99.00;;;;;;5071837;28;20128;-73
2022/10/31 11:10:33;;;;;;;24.15;11.00;;;19.60;99.20;;;;;;5071837;28;20120;-76
2022/10/31 11:13:06;;;;;;;24.50;10.48;;;19.60;99.30;;;;;;5071448;28;20037;-75
2022/10/31 11:15:51;;;;;;;22.85;11.27;;;19.70;99.20;;;;;;5072010;28;20089;-74
2022/10/31 11:18:22;;;;;;;27.80;10.80;;;19.60;99.00;;;;;;5072830;28;20071;-74
2022/10/31 11:20:59;;;;;;;24.17;10.43;;;19.50;99.00;;;;;;5071505;28;20016;-74
2022/10/31 11:23:27;;;;;;;23.23;10.48;;;19.50;99.30;;;;;;5071720;28;20029;-75
2022/10/31 11:25:54;;;;;;;27.83;10.38;;;19.60;99.10;;;;;;5071503;28;20067;-76
2022/10/31 11:28:20;;;;;;;24.85;10.52;;;19.60;99.30;;;;;;5071825;28;20044;-75
2022/10/31 11:30:51;;;;;;;25.70;9.40;;;19.80;98.80;;;;;;5070113;28;20033;-74
2022/10/31 11:33:33;;;;;;;21.05;8.82;;;20.00;99.00;;;;;;5070798;28;20036;-74
2022/10/31 11:36:02;;;;;;;23.30;10.50;;;20.20;98.50;;;;;;5071200;28;20039;-75
2022/10/31 11:38:39;;;;;;;;;;;20.30;98.20;;;;;;5071823;28;20403;-75
2022/10/31 11:41:12;;;;;;;21.45;8.77;;;20.30;98.00;;;;;;5069862;28;20350;-73
2022/10/31 11:43:40;;;;;;;22.23;8.15;;;20.40;97.90;;;;;;5070669;28;20116;-73
2022/10/31 11:46:17;;;;;;;17.90;7.45;;;20.30;97.80;;;;;;5070665;28;20028;-73
2022/10/31 11:48:49;;;;;;;21.88;8.75;;;20.30;97.70;;;;;;5070725;28;20089;-73
2022/10/31 11:51:24;;;;;;;19.48;8.45;;;20.40;97.60;;;;;;5070608;28;20024;-74
2022/10/31 11:53:57;;;;;;;23.13;8.07;;;20.40;97.70;;;;;;5070499;28;20112;-75
2022/10/31 11:56:23;;;;;;;24.95;7.50;;;20.50;97.70;;;;;;5071225;28;20064;-73
2022/10/31 11:59:03;;;;;;;20.20;7.20;;;20.40;97.50;;;;;;5070722;28;20021;-73
2022/10/31 12:01:32;;;;;;;25.08;6.88;;;20.40;97.50;;;;;;5069558;28;20103;-72
2022/10/31 12:04:09;;;;;;;14.32;6.93;;;20.40;97.50;;;;;;5069341;28;20041;-74
2022/10/31 12:06:54;;;;;;;21.20;7.25;;;20.50;97.70;;;;;;5070379;28;20119;-71
2022/10/31 12:09:26;;;;;;;18.50;6.68;;;20.30;97.20;;;;;;5069972;28;20025;-73
2022/10/31 12:12:15;;;;;;;18.38;6.65;;;20.30;97.30;;;;;;5070199;28;20022;-73
2022/10/31 12:15:14;;;;;;;20.20;6.70;;;20.30;97.30;;;;;;5070421;28;20298;-74
2022/10/31 12:17:51;;;;;;;18.55;5.95;;;20.30;97.40;;;;;;5074331;28;20374;-72
2022/10/31 12:21:08;;;;;;;16.63;6.68;;;20.40;97.30;;;;;;5070456;28;20032;-72
2022/10/31 12:23:59;;;;;;;16.85;6.47;;;20.30;97.30;;;;;;5058114;28;20048;-73
2022/10/31 12:26:43;;;;;;;22.52;7.75;;;20.30;97.50;;;;;;5070192;28;20037;-74
2022/10/31 12:29:33;;;;;;;21.50;6.93;;;20.40;97.50;;;;;;5070666;28;20032;-73
2022/10/31 12:31:59;;;;;;;16.50;7.05;;;20.30;97.40;;;;;;5069307;28;20119;-74
2022/10/31 12:34:52;;;;;;;18.33;7.47;;;20.30;97.60;;;;;;5069378;28;20569;-73
2022/10/31 12:37:32;;;;;;;18.25;6.82;;;20.20;97.40;;;;;;5068960;28;20102;-74
2022/10/31 12:40:22;;;;;;;21.13;7.57;;;20.20;97.60;;;;;;5070081;28;20036;-74
2022/10/31 12:43:10;;;;;;;18.05;7.07;;;20.20;97.30;;;;;;5069089;28;20033;-74
2022/10/31 12:45:44;;;;;;;;;;;20.20;97.50;;;;;;5071672;28;20111;-74
2022/10/31 12:48:40;;;;;;;16.52;7.43;;;20.20;97.70;;;;;;5070280;28;19935;-74
2022/10/31 12:51:27;;;;;;;18.10;8.35;;;20.30;97.70;;;;;;5069735;28;20041;-72
2022/10/31 12:54:11;;;;;;;21.42;9.60;;;20.30;97.80;;;;;;5068311;28;20033;-73